KICT/ICT METAR and TAF weather

Enter ICAO airport designator
Station Type Date Time Source
KICT METAR 2021/05/12 01:53 UTC NOAA

KICT 120153Z 06008KT 10SM FEW045 BKN085 13/06 A3024 RMK AO2 SLP241 T01330056


Station Type Date Time Source
KICT Decoded METAR 2021/05/12 01:53 UTC NOAA

WICHITA MID-CONTINENT AIRPORT , KS, United States (KICT) 37-39N 97-26W 408M
May 11, 2021 - 09:53 PM EDT / 2021.05.12 0153 UTC
Wind: from the ENE (060 degrees) at 9 MPH (8 KT):0
Visibility: 10 mile(s):0
Sky conditions: mostly cloudy
Temperature: 55.9 F (13.3 C)
Dew Point: 42.1 F (5.6 C)
Relative Humidity: 59%
Pressure (altimeter): 30.24 in. Hg (1024 hPa)
ob: KICT 120153Z 06008KT 10SM FEW045 BKN085 13/06 A3024 RMK AO2 SLP241 T01330056
cycle: 2

Station Type Date Time Source
KICT TAF 2021/05/11 18:36 UTC NOAA

TAF KICT 111734Z 1118/1218 06012KT P6SM OVC050
FM112300 05010KT P6SM OVC070
FM121200 04007KT P6SM OVC035
FM121600 08008KT P6SM BKN035

Example: see airport list